Time;durP1;ratioP1;P1;durP2;ratioP2;P2;SDS_P1;SDS_P2;PMS_P1;PMS_P2;Temp;Humidity;BMP_temperature;BMP_pressure;BME280_temperature;BME280_humidity;BME280_pressure;Samples;Min_cycle;Max_cycle;Signal;HPM_P1;HPM_P2
2023/12/11 00:01:09;;;;;;;48.57;5.80;;;8.50;99.90;;;;;;5070631;28;20780;-87
2023/12/11 00:03:34;;;;;;;43.13;6.10;;;8.50;99.90;;;;;;5071435;28;20501;-87
2023/12/11 00:06:00;;;;;;;50.03;6.82;;;8.50;99.90;;;;;;5087438;28;20406;-88
2023/12/11 00:08:26;;;;;;;45.67;5.95;;;8.50;99.90;;;;;;5089663;28;20431;-87
2023/12/11 00:10:51;;;;;;;46.47;6.60;;;8.50;99.90;;;;;;5073373;28;20448;-87
2023/12/11 00:13:17;;;;;;;48.90;6.32;;;8.50;99.90;;;;;;5091806;28;20444;-89
2023/12/11 00:15:43;;;;;;;43.03;5.72;;;8.50;99.90;;;;;;5075110;28;20424;-87
2023/12/11 00:18:09;;;;;;;45.57;6.07;;;8.60;99.90;;;;;;5090297;28;20412;-87
2023/12/11 00:20:34;;;;;;;43.97;6.40;;;8.60;99.90;;;;;;5074522;28;20410;-88
2023/12/11 00:23:00;;;;;;;47.85;6.57;;;8.60;99.90;;;;;;5089966;28;20835;-87
2023/12/11 00:25:29;;;;;;;51.97;7.05;;;8.70;99.90;;;;;;5074005;28;20392;-86
2023/12/11 00:27:54;;;;;;;50.63;6.82;;;8.70;99.90;;;;;;5072715;28;20396;-88
2023/12/11 00:30:20;;;;;;;53.53;7.23;;;8.80;99.90;;;;;;5090622;28;20432;-88
2023/12/11 00:32:46;;;;;;;51.10;7.20;;;8.80;99.90;;;;;;5056941;28;20408;-87
2023/12/11 00:35:12;;;;;;;44.50;7.15;;;8.70;99.90;;;;;;5073388;28;20396;-88
2023/12/11 00:37:37;;;;;;;44.55;6.93;;;8.80;99.90;;;;;;5074082;28;20414;-88
2023/12/11 00:40:04;;;;;;;47.77;6.70;;;9.00;99.90;;;;;;5072333;28;20465;-87
2023/12/11 00:42:29;;;;;;;45.10;6.97;;;8.80;99.90;;;;;;5091246;28;20408;-88
2023/12/11 00:44:55;;;;;;;46.20;6.73;;;8.80;99.90;;;;;;5072453;28;20400;-88
2023/12/11 00:47:20;;;;;;;52.03;6.80;;;8.80;99.90;;;;;;5090994;28;20409;-91
2023/12/11 00:49:48;;;;;;;49.05;6.88;;;8.80;99.90;;;;;;5072519;28;20988;-87
2023/12/11 00:52:14;;;;;;;50.92;6.20;;;8.90;99.90;;;;;;5073146;28;20748;-86
2023/12/11 00:54:39;;;;;;;48.30;6.63;;;9.00;99.90;;;;;;5090668;28;20408;-89
2023/12/11 00:57:05;;;;;;;50.50;6.70;;;8.90;99.90;;;;;;5072556;28;20461;-88
2023/12/11 00:59:30;;;;;;;52.63;7.03;;;8.90;99.90;;;;;;5073941;28;20907;-88
2023/12/11 01:01:56;;;;;;;44.42;6.57;;;8.90;99.90;;;;;;5072114;28;20414;-87
2023/12/11 01:04:22;;;;;;;49.45;7.10;;;8.90;99.90;;;;;;5073189;28;20436;-87
2023/12/11 01:06:47;;;;;;;41.63;5.83;;;8.90;99.90;;;;;;5089744;28;20405;-86
2023/12/11 01:09:13;;;;;;;48.63;7.05;;;8.90;99.90;;;;;;5073696;28;20476;-87
2023/12/11 01:11:39;;;;;;;43.63;6.07;;;8.90;99.90;;;;;;5071828;28;20424;-87
2023/12/11 01:14:05;;;;;;;47.22;7.03;;;8.90;99.90;;;;;;5089416;28;20415;-87
2023/12/11 01:16:30;;;;;;;51.10;6.80;;;8.90;99.90;;;;;;5073808;28;20405;-87
2023/12/11 01:18:56;;;;;;;43.53;5.73;;;9.30;99.90;;;;;;5072542;28;20487;-87
2023/12/11 01:21:21;;;;;;;48.20;5.90;;;8.90;99.90;;;;;;5090940;28;20822;-89
2023/12/11 01:23:47;;;;;;;43.40;6.17;;;8.90;99.90;;;;;;5071869;28;20404;-89
2023/12/11 01:26:13;;;;;;;40.83;5.78;;;8.90;99.90;;;;;;5074333;28;20879;-89
2023/12/11 01:28:38;;;;;;;39.57;6.17;;;9.30;99.90;;;;;;5072744;28;20403;-89
2023/12/11 01:31:04;;;;;;;44.73;6.40;;;9.00;99.90;;;;;;5072807;28;20424;-87
2023/12/11 01:33:30;;;;;;;42.47;5.95;;;9.00;99.90;;;;;;5073661;28;20404;-89
2023/12/11 01:35:55;;;;;;;42.30;6.38;;;9.00;99.90;;;;;;5089211;28;20392;-87
2023/12/11 01:38:21;;;;;;;43.57;5.70;;;9.00;99.90;;;;;;5090726;28;20412;-87
2023/12/11 01:40:46;;;;;;;47.85;5.85;;;9.00;99.90;;;;;;5088870;28;20416;-88
2023/12/11 01:43:17;;;;;;;43.07;6.20;;;9.00;99.90;;;;;;5090383;28;20438;-87
2023/12/11 01:45:43;;;;;;;43.15;6.03;;;9.00;99.90;;;;;;5088522;28;20404;-88
2023/12/11 01:48:12;;;;;;;57.88;6.80;;;9.00;99.90;;;;;;5074378;28;20457;-90
2023/12/11 01:50:39;;;;;;;65.53;7.63;;;9.00;99.90;;;;;;5091534;28;20443;-90
2023/12/11 01:53:06;;;;;;;50.05;6.55;;;8.90;99.90;;;;;;5089693;28;20453;-92
2023/12/11 01:55:33;;;;;;;63.15;7.88;;;9.20;99.90;;;;;;5073859;28;20484;-92
2023/12/11 01:58:00;;;;;;;54.75;6.70;;;8.80;99.90;;;;;;5072290;28;20438;-91
2023/12/11 02:00:26;;;;;;;62.45;7.18;;;8.80;99.90;;;;;;5074586;28;20400;-91
2023/12/11 02:02:52;;;;;;;57.65;7.05;;;8.80;99.90;;;;;;5071966;28;20411;-89
2023/12/11 02:05:17;;;;;;;58.40;6.72;;;8.90;99.90;;;;;;5073905;28;20408;-90
2023/12/11 02:07:43;;;;;;;66.22;7.78;;;8.90;99.90;;;;;;5089506;28;20902;-90
2023/12/11 02:10:09;;;;;;;49.22;6.93;;;8.80;99.90;;;;;;5069361;28;20517;-94
2023/12/11 02:12:35;;;;;;;47.30;6.70;;;8.70;99.90;;;;;;5070031;28;20418;-90
2023/12/11 02:15:01;;;;;;;56.63;6.77;;;8.70;99.90;;;;;;5085608;28;20466;-92
2023/12/11 02:17:26;;;;;;;56.97;8.20;;;8.70;99.90;;;;;;5070668;28;20454;-90
2023/12/11 02:19:52;;;;;;;51.08;6.88;;;8.90;99.90;;;;;;5068806;28;20406;-92
2023/12/11 02:22:18;;;;;;;64.53;7.57;;;8.70;99.90;;;;;;5070328;28;20410;-90
2023/12/11 02:24:49;;;;;;;52.67;7.50;;;8.80;99.90;;;;;;5085566;28;20406;-92
2023/12/11 02:27:15;;;;;;;53.28;6.75;;;8.70;99.90;;;;;;5086727;28;20413;-90
2023/12/11 02:29:41;;;;;;;50.97;7.13;;;8.80;99.90;;;;;;5070276;28;20410;-90
2023/12/11 02:32:06;;;;;;;62.35;7.47;;;8.80;99.90;;;;;;5069143;28;20402;-92
2023/12/11 02:34:32;;;;;;;52.57;7.63;;;8.70;99.90;;;;;;5070440;28;20885;-92
2023/12/11 02:36:58;;;;;;;48.78;6.70;;;9.00;99.90;;;;;;5068392;28;20414;-92
2023/12/11 02:39:23;;;;;;;49.88;6.95;;;8.90;99.90;;;;;;5070160;28;20484;-91
2023/12/11 02:41:49;;;;;;;52.77;7.90;;;8.80;99.90;;;;;;5085934;28;20397;-92
2023/12/11 02:44:15;;;;;;;50.43;6.33;;;8.80;99.90;;;;;;5069662;28;20410;-91
2023/12/11 02:46:40;;;;;;;51.50;7.65;;;8.80;99.90;;;;;;5068731;28;20410;-93
2023/12/11 02:49:06;;;;;;;60.10;7.35;;;8.80;99.90;;;;;;5085690;28;20418;-91
2023/12/11 02:51:32;;;;;;;67.10;7.95;;;8.80;99.90;;;;;;5069298;28;20426;-91
2023/12/11 02:53:58;;;;;;;63.80;7.63;;;8.80;99.90;;;;;;5084995;28;20398;-93
2023/12/11 02:56:23;;;;;;;68.57;7.60;;;8.80;99.90;;;;;;5069890;28;20413;-90
2023/12/11 02:58:49;;;;;;;58.20;7.38;;;8.90;99.90;;;;;;5070084;28;20760;-91
2023/12/11 03:01:15;;;;;;;56.00;7.28;;;8.80;99.90;;;;;;5107851;28;20396;-89
2023/12/11 03:03:41;;;;;;;66.40;7.55;;;9.00;99.90;;;;;;5106193;28;20477;-90
2023/12/11 03:06:08;;;;;;;62.60;7.35;;;8.80;99.90;;;;;;5090325;28;20798;-92
2023/12/11 03:08:36;;;;;;;55.58;7.75;;;8.80;99.90;;;;;;5108339;28;20408;-91
2023/12/11 03:11:02;;;;;;;68.60;9.13;;;8.90;99.90;;;;;;5091693;28;20476;-91
2023/12/11 03:13:28;;;;;;;60.50;7.30;;;8.80;99.90;;;;;;5110185;28;20395;-90
2023/12/11 03:15:53;;;;;;;67.33;8.50;;;8.80;99.90;;;;;;5108736;28;20394;-89
2023/12/11 03:18:19;;;;;;;59.67;7.23;;;8.80;99.90;;;;;;5093873;28;20401;-89
2023/12/11 03:20:44;;;;;;;57.20;7.18;;;8.80;99.90;;;;;;5109222;28;20433;-90
2023/12/11 03:23:10;;;;;;;55.47;6.30;;;9.00;99.90;;;;;;5110096;28;20426;-92
2023/12/11 03:25:36;;;;;;;56.03;7.22;;;8.80;99.90;;;;;;5092165;28;20403;-91
2023/12/11 03:28:02;;;;;;;61.90;6.93;;;8.80;99.90;;;;;;5105982;28;20508;-92
2023/12/11 03:30:27;;;;;;;62.05;7.85;;;8.80;99.90;;;;;;5072799;28;20821;-92
2023/12/11 03:32:53;;;;;;;55.50;7.30;;;8.80;99.90;;;;;;5071726;28;20403;-93
2023/12/11 03:35:19;;;;;;;61.40;7.82;;;8.80;99.90;;;;;;5076581;28;20435;-90
2023/12/11 03:37:45;;;;;;;59.67;7.37;;;8.80;99.90;;;;;;5074181;28;20396;-89
2023/12/11 03:40:11;;;;;;;59.60;7.30;;;8.80;99.90;;;;;;5076940;28;20412;-93
2023/12/11 03:42:37;;;;;;;55.13;7.68;;;8.80;99.90;;;;;;5075327;28;20496;-90
2023/12/11 03:45:03;;;;;;;56.42;7.95;;;9.00;99.90;;;;;;5075620;28;20439;-93
2023/12/11 03:47:28;;;;;;;64.93;8.00;;;8.80;99.90;;;;;;5076371;28;20417;-90
2023/12/11 03:49:54;;;;;;;67.18;8.57;;;8.80;99.90;;;;;;5092107;28;20528;-91
2023/12/11 03:52:20;;;;;;;62.22;8.27;;;8.80;99.90;;;;;;5093386;28;20404;-91
2023/12/11 03:54:46;;;;;;;67.10;8.07;;;9.10;99.90;;;;;;5091467;28;20408;-91
2023/12/11 03:57:12;;;;;;;62.40;8.10;;;8.80;99.90;;;;;;5076406;28;20400;-89
2023/12/11 03:59:38;;;;;;;58.03;7.80;;;8.80;99.90;;;;;;5091607;28;20491;-90
2023/12/11 04:02:06;;;;;;;62.42;8.32;;;8.80;99.90;;;;;;5110927;28;20393;-90
2023/12/11 04:04:32;;;;;;;55.03;7.68;;;8.90;99.90;;;;;;5075701;28;20779;-94
2023/12/11 04:06:57;;;;;;;59.67;7.82;;;8.90;99.90;;;;;;5075003;28;20421;-90
2023/12/11 04:09:23;;;;;;;63.67;8.13;;;9.00;99.90;;;;;;5075457;28;20416;-90
2023/12/11 04:11:49;;;;;;;54.35;7.90;;;8.90;99.90;;;;;;5091172;28;20466;-91
2023/12/11 04:14:14;;;;;;;63.15;8.05;;;8.90;99.90;;;;;;5093012;28;20975;-91
2023/12/11 04:16:43;;;;;;;58.90;8.57;;;9.20;99.90;;;;;;5073954;28;20449;-91
2023/12/11 04:19:11;;;;;;;58.30;8.13;;;8.80;99.90;;;;;;5075800;28;20423;-91
2023/12/11 04:21:37;;;;;;;55.22;7.43;;;8.90;99.90;;;;;;5092141;28;20409;-90
2023/12/11 04:24:03;;;;;;;46.17;7.55;;;8.80;99.90;;;;;;5091743;28;20416;-92
2023/12/11 04:26:29;;;;;;;54.17;7.43;;;8.90;99.90;;;;;;5075638;28;20396;-92
2023/12/11 04:28:55;;;;;;;50.73;7.50;;;8.80;99.90;;;;;;5091077;28;20457;-88
2023/12/11 04:31:23;;;;;;;53.73;7.63;;;9.10;99.90;;;;;;5075662;28;20519;-90
2023/12/11 04:33:50;;;;;;;56.88;8.38;;;8.80;99.90;;;;;;5090782;28;20490;-92
2023/12/11 04:36:16;;;;;;;63.08;8.07;;;8.90;99.90;;;;;;5092556;28;21223;-89
2023/12/11 04:38:41;;;;;;;57.00;7.20;;;8.90;99.90;;;;;;5091010;28;20392;-89
2023/12/11 04:41:07;;;;;;;62.00;7.60;;;9.10;99.90;;;;;;5074811;28;20453;-91
2023/12/11 04:43:36;;;;;;;61.57;8.10;;;8.90;99.90;;;;;;5074730;28;20416;-90
2023/12/11 04:46:01;;;;;;;54.75;7.60;;;9.20;99.90;;;;;;5090780;28;20503;-90
2023/12/11 04:48:27;;;;;;;59.40;7.90;;;8.90;99.90;;;;;;5091943;28;20487;-90
2023/12/11 04:50:52;;;;;;;58.07;7.67;;;8.90;99.90;;;;;;5072912;28;20416;-91
2023/12/11 04:53:18;;;;;;;60.40;7.80;;;9.10;99.90;;;;;;5075334;28;20471;-89
2023/12/11 04:55:44;;;;;;;50.25;6.97;;;8.90;99.90;;;;;;5073760;28;20958;-89
2023/12/11 04:58:09;;;;;;;43.20;6.50;;;9.10;99.90;;;;;;5074914;28;20469;-92
2023/12/11 05:00:35;;;;;;;50.93;6.80;;;8.90;99.90;;;;;;5074709;28;20465;-90
2023/12/11 05:03:01;;;;;;;49.38;6.68;;;8.90;99.90;;;;;;5074257;28;20952;-90
2023/12/11 05:05:26;;;;;;;52.37;6.53;;;8.90;99.90;;;;;;5074880;28;20805;-89
2023/12/11 05:07:52;;;;;;;46.63;7.10;;;9.00;99.90;;;;;;5073569;28;20503;-89
2023/12/11 05:10:17;;;;;;;45.00;6.90;;;8.90;99.90;;;;;;5070990;28;20476;-92
2023/12/11 05:12:43;;;;;;;45.67;7.13;;;8.90;99.90;;;;;;5069254;28;20425;-91
2023/12/11 05:15:09;;;;;;;52.40;7.13;;;8.90;99.90;;;;;;5071519;28;20459;-89
2023/12/11 05:17:34;;;;;;;52.10;6.63;;;9.00;99.90;;;;;;5069642;28;20414;-88
2023/12/11 05:20:00;;;;;;;47.17;6.30;;;9.00;99.90;;;;;;5070447;28;20824;-89
2023/12/11 05:22:25;;;;;;;52.45;6.82;;;9.00;99.90;;;;;;5087252;28;20412;-89
2023/12/11 05:24:54;;;;;;;47.33;6.50;;;9.00;99.90;;;;;;5070019;28;20410;-88
2023/12/11 05:27:19;;;;;;;41.80;6.10;;;9.00;99.90;;;;;;5087618;28;20485;-90
2023/12/11 05:29:45;;;;;;;41.88;5.68;;;9.10;99.90;;;;;;5069411;28;20410;-89
2023/12/11 05:32:11;;;;;;;51.57;6.30;;;9.00;99.90;;;;;;5070683;28;20422;-88
2023/12/11 05:34:37;;;;;;;44.23;6.10;;;9.00;99.90;;;;;;5069247;28;20493;-87
2023/12/11 05:37:02;;;;;;;41.63;6.28;;;9.10;99.90;;;;;;5070389;28;20493;-90
2023/12/11 05:39:28;;;;;;;37.78;6.47;;;9.00;99.90;;;;;;5086816;28;20473;-88
2023/12/11 05:41:53;;;;;;;41.00;5.93;;;9.00;99.90;;;;;;5069232;28;20414;-90
2023/12/11 05:44:19;;;;;;;40.85;5.88;;;9.00;99.90;;;;;;5070661;28;20402;-90
2023/12/11 05:46:46;;;;;;;44.13;6.40;;;9.00;99.90;;;;;;5086034;28;20420;-89
2023/12/11 05:49:12;;;;;;;38.88;5.15;;;9.00;99.90;;;;;;5087841;28;20414;-87
2023/12/11 05:51:38;;;;;;;36.33;5.47;;;9.00;99.90;;;;;;5085480;28;20512;-89
2023/12/11 05:54:04;;;;;;;43.08;5.82;;;9.00;99.90;;;;;;5070511;28;20419;-88
2023/12/11 05:56:30;;;;;;;39.47;5.70;;;9.00;99.90;;;;;;5085605;28;20401;-89
2023/12/11 05:58:56;;;;;;;45.90;6.30;;;9.30;99.90;;;;;;5087021;28;20433;-89
2023/12/11 06:01:22;;;;;;;41.60;5.65;;;9.00;99.90;;;;;;5086643;28;20408;-89
2023/12/11 06:03:47;;;;;;;38.43;4.97;;;9.10;99.90;;;;;;5068917;28;20443;-91
2023/12/11 06:06:17;;;;;;;37.93;5.53;;;9.10;99.90;;;;;;5070000;28;20402;-89
2023/12/11 06:08:45;;;;;;;39.77;5.07;;;9.20;99.90;;;;;;5071442;28;20416;-89
2023/12/11 06:11:11;;;;;;;35.83;5.35;;;9.00;99.90;;;;;;5073290;28;20431;-90
2023/12/11 06:13:36;;;;;;;37.83;5.20;;;9.00;99.90;;;;;;5088800;28;20397;-88
2023/12/11 06:16:02;;;;;;;42.80;5.77;;;9.00;99.90;;;;;;5073238;28;20520;-89
2023/12/11 06:18:28;;;;;;;38.23;5.33;;;8.90;99.90;;;;;;5072720;28;20916;-88
2023/12/11 06:20:53;;;;;;;43.92;5.15;;;9.00;99.90;;;;;;5088571;28;20392;-91
2023/12/11 06:23:22;;;;;;;41.83;6.80;;;9.00;99.90;;;;;;5090490;28;21221;-90
2023/12/11 06:25:47;;;;;;;48.35;6.03;;;9.00;99.90;;;;;;5088827;28;20400;-89
2023/12/11 06:28:13;;;;;;;40.33;5.80;;;9.00;99.90;;;;;;5073949;28;20407;-89
2023/12/11 06:30:38;;;;;;;44.13;5.50;;;9.00;99.90;;;;;;5072407;28;20773;-90
2023/12/11 06:33:05;;;;;;;49.78;7.28;;;9.00;99.90;;;;;;5073568;28;20408;-90
2023/12/11 06:35:30;;;;;;;46.47;6.32;;;9.00;99.90;;;;;;5089216;28;20899;-90
2023/12/11 06:37:56;;;;;;;49.60;7.03;;;9.30;99.90;;;;;;5072796;28;20417;-90
2023/12/11 06:40:21;;;;;;;44.72;6.18;;;9.00;99.90;;;;;;5073211;28;20400;-89
2023/12/11 06:42:47;;;;;;;49.20;6.47;;;9.00;99.90;;;;;;5070172;28;20470;-89
2023/12/11 06:45:13;;;;;;;49.43;6.30;;;9.00;99.90;;;;;;5086521;28;20405;-89
2023/12/11 06:47:39;;;;;;;41.53;6.05;;;9.00;99.90;;;;;;5084296;28;20448;-89
2023/12/11 06:50:05;;;;;;;46.53;5.80;;;9.00;99.90;;;;;;5069774;28;20426;-89
2023/12/11 06:52:30;;;;;;;44.92;6.03;;;9.00;99.90;;;;;;5068664;28;20429;-88
2023/12/11 06:54:56;;;;;;;42.97;6.00;;;9.00;99.90;;;;;;5069537;28;20410;-90
2023/12/11 06:57:22;;;;;;;44.07;6.13;;;9.10;99.90;;;;;;5052680;28;20440;-90
2023/12/11 06:59:48;;;;;;;36.57;5.70;;;8.90;99.90;;;;;;5077038;28;20463;-91
2023/12/11 07:02:13;;;;;;;47.40;6.82;;;9.10;99.90;;;;;;5073162;28;20850;-91
2023/12/11 07:04:42;;;;;;;50.58;6.78;;;9.10;99.90;;;;;;5070819;28;20415;-91
2023/12/11 07:07:08;;;;;;;43.63;6.17;;;9.10;99.90;;;;;;5073724;28;20420;-92
2023/12/11 07:09:33;;;;;;;44.90;6.63;;;9.10;99.90;;;;;;5073841;28;20933;-90
2023/12/11 07:11:59;;;;;;;37.20;5.15;;;9.40;99.90;;;;;;5076672;28;20430;-91
2023/12/11 07:14:25;;;;;;;36.70;5.57;;;9.40;99.90;;;;;;5076084;28;20420;-89
2023/12/11 07:16:51;;;;;;;37.58;5.55;;;9.10;99.90;;;;;;5093096;28;20438;-90
2023/12/11 07:19:19;;;;;;;45.42;6.40;;;9.10;99.90;;;;;;5075871;28;20408;-89
2023/12/11 07:21:45;;;;;;;38.40;5.55;;;9.10;99.90;;;;;;5092370;28;20400;-89
2023/12/11 07:24:11;;;;;;;33.67;5.15;;;9.10;99.90;;;;;;5077097;28;20396;-91
2023/12/11 07:26:37;;;;;;;36.53;5.07;;;9.00;99.90;;;;;;5091444;28;20400;-89
2023/12/11 07:29:04;;;;;;;31.08;4.78;;;9.00;99.90;;;;;;5093733;28;20423;-92
2023/12/11 07:31:30;;;;;;;34.63;5.03;;;9.00;99.90;;;;;;5075352;28;20494;-89
2023/12/11 07:33:56;;;;;;;35.15;5.32;;;9.00;99.90;;;;;;5092128;28;20903;-89
2023/12/11 07:36:22;;;;;;;33.10;5.68;;;9.10;99.90;;;;;;5091878;28;20400;-87
2023/12/11 07:38:49;;;;;;;41.22;6.15;;;9.00;99.90;;;;;;5073804;28;20401;-88
2023/12/11 07:41:20;;;;;;;33.28;6.55;;;9.00;99.90;;;;;;5075754;28;20400;-89
2023/12/11 07:43:46;;;;;;;31.25;5.93;;;9.00;99.90;;;;;;5090923;28;20415;-91
2023/12/11 07:46:19;;;;;;;32.03;6.60;;;9.00;99.90;;;;;;5076130;28;21038;-88
2023/12/11 07:48:45;;;;;;;37.72;6.30;;;9.00;99.90;;;;;;5074696;28;20480;-90
2023/12/11 07:51:37;;;;;;;36.85;7.00;;;9.00;99.90;;;;;;5075180;28;20978;-90
2023/12/11 07:54:02;;;;;;;31.52;7.07;;;9.00;99.90;;;;;;5071174;28;20413;-88
2023/12/11 07:56:29;;;;;;;30.45;6.20;;;9.00;99.90;;;;;;5074002;28;20408;-88
2023/12/11 07:58:55;;;;;;;31.42;6.43;;;9.00;99.90;;;;;;5092501;28;20435;-88
2023/12/11 08:01:21;;;;;;;31.27;7.57;;;9.00;99.90;;;;;;5090186;28;20440;-89
2023/12/11 08:03:47;;;;;;;33.27;8.03;;;9.00;99.90;;;;;;5074962;28;20400;-89
2023/12/11 08:06:12;;;;;;;30.17;7.30;;;9.00;99.90;;;;;;5091328;28;20457;-88
2023/12/11 08:08:45;;;;;;;36.40;7.47;;;9.10;99.90;;;;;;5074171;28;20507;-89
2023/12/11 08:11:29;;;;;;;31.43;7.50;;;9.20;99.90;;;;;;5091965;28;21106;-88
2023/12/11 08:13:54;;;;;;;28.23;5.57;;;9.10;99.90;;;;;;5090071;28;20404;-88
2023/12/11 08:16:23;;;;;;;37.75;7.57;;;9.10;99.90;;;;;;5075113;28;20748;-88
2023/12/11 08:18:49;;;;;;;30.20;6.97;;;9.00;99.90;;;;;;5074455;28;20942;-88
2023/12/11 08:21:16;;;;;;;35.97;7.70;;;9.10;99.90;;;;;;5091279;28;20401;-88
2023/12/11 08:23:44;;;;;;;36.72;7.18;;;9.10;99.90;;;;;;5075309;28;20413;-89
2023/12/11 08:26:11;;;;;;;35.75;6.55;;;9.10;99.90;;;;;;5073853;28;20388;-88
2023/12/11 08:28:37;;;;;;;35.42;6.85;;;9.10;99.90;;;;;;5074808;28;20482;-90
2023/12/11 08:31:05;;;;;;;37.07;6.87;;;9.10;99.90;;;;;;5090534;28;21009;-88
2023/12/11 08:33:30;;;;;;;40.15;7.43;;;9.00;99.90;;;;;;5091974;28;20444;-88
2023/12/11 08:35:56;;;;;;;42.57;7.27;;;9.10;99.90;;;;;;5090283;28;20443;-88
2023/12/11 08:38:23;;;;;;;36.95;7.32;;;9.10;99.90;;;;;;5074571;28;20404;-89
2023/12/11 08:40:49;;;;;;;36.15;7.05;;;9.10;99.90;;;;;;5074396;28;20411;-88
2023/12/11 08:43:16;;;;;;;39.13;7.75;;;9.10;99.90;;;;;;5073402;28;20409;-88
2023/12/11 08:45:42;;;;;;;40.33;8.27;;;9.10;99.90;;;;;;5074528;28;20488;-86
2023/12/11 08:48:08;;;;;;;39.45;8.57;;;9.10;99.90;;;;;;5089726;28;20443;-88
2023/12/11 08:50:34;;;;;;;42.03;8.18;;;9.10;99.90;;;;;;5091230;28;21207;-87
2023/12/11 08:53:00;;;;;;;46.08;7.80;;;9.20;99.90;;;;;;5073017;28;20469;-89
2023/12/11 08:55:27;;;;;;;42.38;8.10;;;9.20;99.90;;;;;;5074423;28;20426;-89
2023/12/11 08:57:53;;;;;;;34.08;6.68;;;9.10;99.90;;;;;;5090422;28;20752;-87
2023/12/11 09:00:18;;;;;;;46.42;7.88;;;9.70;99.90;;;;;;5090585;28;20403;-89
2023/12/11 09:02:44;;;;;;;42.17;6.85;;;9.20;99.90;;;;;;5091210;28;20408;-88
2023/12/11 09:05:10;;;;;;;41.37;7.50;;;9.20;99.90;;;;;;5089094;28;20420;-88
2023/12/11 09:07:35;;;;;;;38.90;7.10;;;9.20;99.90;;;;;;5090526;28;20411;-89
2023/12/11 09:10:02;;;;;;;37.43;5.90;;;9.30;99.90;;;;;;5071866;28;20412;-89
2023/12/11 09:12:28;;;;;;;42.97;6.60;;;9.40;99.90;;;;;;5073473;28;20404;-88
2023/12/11 09:14:53;;;;;;;34.27;5.60;;;9.30;99.90;;;;;;5089742;28;20400;-88
2023/12/11 09:17:19;;;;;;;35.63;5.40;;;9.30;99.90;;;;;;5074141;28;20431;-89
2023/12/11 09:19:45;;;;;;;40.07;5.47;;;9.40;99.90;;;;;;5073551;28;20418;-88
2023/12/11 09:22:11;;;;;;;34.10;4.65;;;9.40;99.90;;;;;;5089600;28;20500;-90
2023/12/11 09:24:37;;;;;;;35.53;4.50;;;9.40;99.90;;;;;;5073609;28;20396;-88
2023/12/11 09:27:04;;;;;;;30.97;4.13;;;9.40;99.90;;;;;;5071972;28;20495;-89
2023/12/11 09:29:30;;;;;;;31.70;4.47;;;9.40;99.90;;;;;;5073717;28;20817;-90
2023/12/11 09:31:55;;;;;;;31.07;3.50;;;9.50;99.90;;;;;;5088547;28;20436;-88
2023/12/11 09:34:21;;;;;;;28.20;2.97;;;9.50;99.90;;;;;;5073771;28;20439;-89
2023/12/11 09:36:47;;;;;;;27.93;3.13;;;9.50;99.90;;;;;;5073355;28;20771;-91
2023/12/11 09:39:15;;;;;;;28.33;3.20;;;9.50;99.90;;;;;;5073231;28;21073;-92
2023/12/11 09:41:43;;;;;;;29.57;3.13;;;9.60;99.90;;;;;;5074171;28;20404;-90
2023/12/11 09:44:10;;;;;;;30.23;2.80;;;9.50;99.90;;;;;;5089617;28;20435;-89
2023/12/11 09:46:47;;;;;;;25.35;3.70;;;9.60;99.90;;;;;;5073933;28;20779;-89
2023/12/11 09:49:13;;;;;;;24.35;2.95;;;9.50;99.90;;;;;;5071917;28;20499;-92
2023/12/11 09:51:39;;;;;;;29.40;3.20;;;9.40;99.90;;;;;;5074003;28;20503;-90
2023/12/11 09:54:07;;;;;;;29.77;3.30;;;9.60;99.90;;;;;;5073192;28;20438;-91
2023/12/11 09:56:34;;;;;;;30.10;3.92;;;9.60;99.90;;;;;;5072945;28;20416;-94
2023/12/11 09:59:01;;;;;;;29.98;3.85;;;9.60;99.90;;;;;;5073825;28;20492;-90
2023/12/11 10:01:26;;;;;;;31.97;4.00;;;10.10;99.90;;;;;;5072382;28;20913;-92
2023/12/11 10:03:52;;;;;;;26.63;3.50;;;10.00;99.90;;;;;;5074544;28;20397;-89
2023/12/11 10:06:18;;;;;;;30.67;3.38;;;9.90;99.90;;;;;;5071423;28;20899;-91
2023/12/11 10:08:45;;;;;;;31.25;3.83;;;9.70;99.90;;;;;;5073236;28;20499;-89
2023/12/11 10:11:15;;;;;;;29.60;3.30;;;9.60;99.90;;;;;;5089405;28;20989;-90
2023/12/11 10:13:41;;;;;;;30.08;3.80;;;9.70;99.90;;;;;;5072850;28;20876;-89
2023/12/11 10:16:28;;;;;;;33.03;3.53;;;10.10;99.90;;;;;;5073500;28;20404;-91
2023/12/11 10:18:54;;;;;;;24.63;2.85;;;10.00;99.90;;;;;;5072477;28;20400;-94
2023/12/11 10:21:20;;;;;;;26.08;2.78;;;9.90;99.90;;;;;;5074303;28;20398;-90
2023/12/11 10:24:04;;;;;;;24.27;2.20;;;10.00;99.90;;;;;;5072329;28;20404;-93
2023/12/11 10:26:38;;;;;;;26.65;3.03;;;10.00;99.90;;;;;;5053115;28;20406;-91
2023/12/11 10:29:19;;;;;;;28.48;2.83;;;10.00;99.90;;;;;;5053632;28;20904;-90
2023/12/11 10:31:45;;;;;;;27.83;3.53;;;10.00;99.90;;;;;;5067236;28;20760;-89
2023/12/11 10:34:14;;;;;;;25.58;3.00;;;10.00;99.90;;;;;;5090926;28;20452;-89
2023/12/11 10:36:50;;;;;;;27.45;3.17;;;10.00;99.90;;;;;;5089056;28;20408;-87
2023/12/11 10:39:19;;;;;;;29.10;3.75;;;10.00;99.90;;;;;;5073851;28;20434;-95
2023/12/11 10:41:45;;;;;;;19.38;2.28;;;10.00;99.90;;;;;;5073271;28;20426;-92
2023/12/11 10:44:25;;;;;;;18.95;2.20;;;10.20;99.90;;;;;;5076673;28;20404;-92
2023/12/11 10:46:55;;;;;;;22.73;2.33;;;10.00;99.90;;;;;;5077599;28;20404;-87
2023/12/11 10:49:22;;;;;;;17.83;2.00;;;9.70;99.90;;;;;;5075896;28;20400;-89
2023/12/11 10:51:49;;;;;;;16.35;1.42;;;9.80;99.90;;;;;;5077410;28;20973;-92
2023/12/11 10:54:15;;;;;;;17.70;1.88;;;10.00;99.90;;;;;;5092413;28;20433;-87
2023/12/11 10:56:46;;;;;;;18.00;1.60;;;10.20;99.90;;;;;;5093825;28;20465;-94
2023/12/11 10:59:12;;;;;;;15.60;1.38;;;9.80;99.90;;;;;;5077115;28;20412;-89
2023/12/11 11:01:48;;;;;;;12.88;1.05;;;10.00;99.90;;;;;;5075629;28;20817;-88
2023/12/11 11:04:17;;;;;;;11.43;1.20;;;9.80;99.90;;;;;;5094268;28;20446;-87
2023/12/11 11:06:59;;;;;;;13.00;1.05;;;9.80;99.90;;;;;;5092334;28;20396;-88
2023/12/11 11:10:03;;;;;;;15.40;1.27;;;9.80;99.90;;;;;;5094017;28;20457;-88
2023/12/11 11:12:43;;;;;;;13.23;0.93;;;9.80;99.90;;;;;;5076248;28;20414;-88
2023/12/11 11:15:10;;;;;;;10.45;0.70;;;9.80;99.90;;;;;;5074283;28;20498;-87
2023/12/11 11:18:05;;;;;;;11.43;1.10;;;9.80;99.90;;;;;;5076993;28;20990;-87
2023/12/11 11:20:38;;;;;;;9.65;0.80;;;9.70;99.90;;;;;;5075082;28;20921;-89
2023/12/11 11:23:13;;;;;;;7.40;0.60;;;9.70;99.90;;;;;;5075089;28;20416;-89
2023/12/11 11:25:40;;;;;;;7.18;0.85;;;9.60;99.90;;;;;;5093860;28;20799;-89
2023/12/11 11:28:06;;;;;;;11.27;0.60;;;9.60;99.90;;;;;;5075236;28;20772;-92
2023/12/11 11:30:58;;;;;;;8.05;0.70;;;9.60;99.90;;;;;;5076663;28;20833;-91
2023/12/11 11:33:24;;;;;;;7.75;0.60;;;9.60;99.90;;;;;;5070248;28;20411;-88
2023/12/11 11:35:54;;;;;;;7.00;0.60;;;9.60;99.90;;;;;;5075779;28;20482;-87
2023/12/11 11:38:40;;;;;;;9.73;0.88;;;9.60;99.90;;;;;;5076463;28;20978;-88
2023/12/11 11:41:20;;;;;;;13.70;1.60;;;9.60;99.90;;;;;;5074609;28;20397;-91
2023/12/11 11:44:04;;;;;;;14.27;1.33;;;9.60;99.90;;;;;;5076436;28;21203;-88
2023/12/11 11:46:50;;;;;;;18.02;1.60;;;9.60;99.90;;;;;;5074551;28;20393;-87
2023/12/11 11:49:31;;;;;;;17.25;2.55;;;9.60;99.90;;;;;;5091520;28;20985;-92
2023/12/11 11:51:57;;;;;;;22.45;3.30;;;9.60;99.90;;;;;;5093034;28;20428;-91
2023/12/11 11:54:24;;;;;;;21.88;3.15;;;9.60;99.90;;;;;;5074025;28;20405;-90
2023/12/11 11:56:50;;;;;;;19.02;2.67;;;9.60;99.90;;;;;;5090202;28;20759;-92
2023/12/11 11:59:19;;;;;;;19.33;2.67;;;9.50;99.90;;;;;;5072096;28;20843;-92
2023/12/11 12:01:58;;;;;;;19.90;2.42;;;9.70;99.90;;;;;;5067050;28;20922;-92
2023/12/11 12:04:32;;;;;;;20.20;2.43;;;9.60;99.90;;;;;;5076231;28;20412;-90
2023/12/11 12:07:02;;;;;;;16.20;2.10;;;9.40;99.90;;;;;;5054758;28;20476;-90
2023/12/11 12:09:29;;;;;;;17.98;2.55;;;9.50;99.90;;;;;;5055723;28;20769;-91
2023/12/11 12:11:58;;;;;;;16.17;2.35;;;9.50;99.90;;;;;;5054108;28;20978;-93
2023/12/11 12:14:27;;;;;;;19.17;2.15;;;9.50;99.90;;;;;;5054651;28;20485;-86
2023/12/11 12:16:53;;;;;;;16.23;1.90;;;9.70;99.90;;;;;;5054384;28;20413;-86
2023/12/11 12:19:32;;;;;;;17.10;2.20;;;9.80;99.90;;;;;;5054534;28;21029;-90
2023/12/11 12:21:58;;;;;;;14.30;1.38;;;9.40;99.90;;;;;;5071869;28;20421;-92
2023/12/11 12:24:25;;;;;;;14.18;1.67;;;9.40;99.90;;;;;;5086978;28;20477;-87
2023/12/11 12:26:55;;;;;;;13.40;1.23;;;9.40;99.90;;;;;;5074081;28;20395;-89
2023/12/11 12:29:20;;;;;;;14.30;1.17;;;9.40;99.90;;;;;;5090466;28;20400;-88
2023/12/11 12:31:46;;;;;;;13.50;1.07;;;9.60;99.90;;;;;;5074591;28;20485;-89
2023/12/11 12:34:14;;;;;;;12.70;0.90;;;9.30;99.90;;;;;;5074197;28;20408;-86
2023/12/11 12:36:40;;;;;;;13.13;1.02;;;9.40;99.90;;;;;;5073832;28;20866;-92
2023/12/11 12:39:07;;;;;;;14.53;1.00;;;9.70;99.90;;;;;;5075634;28;20438;-90
2023/12/11 12:41:33;;;;;;;11.38;0.88;;;9.40;99.90;;;;;;5072110;28;20408;-87
2023/12/11 12:43:59;;;;;;;10.30;0.90;;;9.30;99.90;;;;;;5090945;28;20463;-87
2023/12/11 12:46:26;;;;;;;11.48;0.88;;;9.30;99.90;;;;;;5073051;28;20439;-87